Time;durP1;ratioP1;P1;durP2;ratioP2;P2;SDS_P1;SDS_P2;PMS_P1;PMS_P2;Temp;Humidity;BMP_temperature;BMP_pressure;BME280_temperature;BME280_humidity;BME280_pressure;Samples;Min_cycle;Max_cycle;Signal;HPM_P1;HPM_P2
2021/12/20 00:02:12;;;;;;;12.53;5.60;;;2.80;76.10;;;;;;5110040;28;19908;-89
2021/12/20 00:04:39;;;;;;;;;;;2.80;75.90;;;;;;5103177;28;20574;-89
2021/12/20 00:07:05;;;;;;;11.33;4.30;;;2.80;76.00;;;;;;5110018;28;19962;-90
2021/12/20 00:09:33;;;;;;;;;;;2.70;75.90;;;;;;5106680;28;20361;-88
2021/12/20 00:11:58;;;;;;;17.53;5.60;;;2.60;76.10;;;;;;5105509;28;19912;-88
2021/12/20 00:14:24;;;;;;;;;;;2.60;76.10;;;;;;5109831;28;20042;-89
2021/12/20 00:16:52;;;;;;;17.00;4.93;;;2.50;76.40;;;;;;5097702;28;19908;-89
2021/12/20 00:19:17;;;;;;;8.03;3.40;;;2.40;76.40;;;;;;5108481;28;20047;-89
2021/12/20 00:21:43;;;;;;;;;;;2.30;76.50;;;;;;5106401;28;20028;-89
2021/12/20 00:24:08;;;;;;;11.97;5.27;;;2.30;76.80;;;;;;5104377;28;19961;-88
2021/12/20 00:26:34;;;;;;;8.95;3.72;;;2.30;76.60;;;;;;5108487;28;20035;-88
2021/12/20 00:29:00;;;;;;;9.85;4.55;;;2.30;76.80;;;;;;5107482;28;20000;-89
2021/12/20 00:31:25;;;;;;;;;;;2.30;76.80;;;;;;5115084;28;20365;-88
2021/12/20 00:33:51;;;;;;;12.27;4.07;;;2.40;76.80;;;;;;5118479;28;19968;-88
2021/12/20 00:36:21;;;;;;;8.98;3.47;;;2.50;76.40;;;;;;5107645;28;20111;-90
2021/12/20 00:41:31;;;;;;;9.23;2.53;;;2.50;76.30;;;;;;5103874;28;20035;-89
2021/12/20 00:43:56;;;;;;;;;;;2.60;76.20;;;;;;5112424;28;20024;-90
2021/12/20 00:46:24;;;;;;;8.07;3.07;;;2.60;76.20;;;;;;5107719;28;20543;-89
2021/12/20 00:48:50;;;;;;;14.30;4.13;;;2.70;75.90;;;;;;5110055;28;20012;-90
2021/12/20 00:51:18;;;;;;;;;;;2.70;75.90;;;;;;5112289;28;20023;-89
2021/12/20 00:53:46;;;;;;;7.40;2.60;;;2.80;76.00;;;;;;5107630;28;20067;-89
2021/12/20 00:56:12;;;;;;;11.23;3.87;;;2.70;75.60;;;;;;5108222;28;20019;-89
2021/12/20 00:58:37;;;;;;;;;;;2.80;75.50;;;;;;5112536;28;20068;-89
2021/12/20 01:01:03;;;;;;;14.87;4.33;;;2.80;75.60;;;;;;5106517;28;19953;-89
2021/12/20 01:03:32;;;;;;;13.50;4.93;;;2.80;75.30;;;;;;5112034;28;20046;-89
2021/12/20 01:05:59;;;;;;;12.00;4.20;;;2.80;75.40;;;;;;5103694;28;20145;-87
2021/12/20 01:08:28;;;;;;;9.23;3.90;;;2.80;75.50;;;;;;5107746;28;20020;-89
2021/12/20 01:10:55;;;;;;;9.67;3.47;;;2.90;75.50;;;;;;5102143;28;20035;-89
2021/12/20 01:13:24;;;;;;;11.50;3.63;;;2.90;75.50;;;;;;5111042;28;20016;-89
2021/12/20 01:15:53;;;;;;;7.67;3.40;;;2.90;75.30;;;;;;5115538;28;20023;-88
2021/12/20 01:18:20;;;;;;;9.27;2.93;;;2.90;75.30;;;;;;5098530;28;20042;-88
2021/12/20 01:20:46;;;;;;;12.37;3.43;;;2.90;75.10;;;;;;5104108;28;20034;-88
2021/12/20 01:23:15;;;;;;;;;;;3.00;75.00;;;;;;5114214;28;20032;-88
2021/12/20 01:25:41;;;;;;;4.83;2.23;;;3.00;75.10;;;;;;5107577;28;19911;-89
2021/12/20 01:28:07;;;;;;;;;;;3.00;74.80;;;;;;5110739;28;20063;-89
2021/12/20 01:30:34;;;;;;;8.93;4.13;;;2.90;74.90;;;;;;5107176;28;20367;-88
2021/12/20 01:33:00;;;;;;;11.97;4.00;;;2.90;74.80;;;;;;5110363;28;20376;-88
2021/12/20 01:35:26;;;;;;;;;;;2.90;75.00;;;;;;5112107;28;20110;-89
2021/12/20 01:37:53;;;;;;;8.47;3.17;;;2.90;75.20;;;;;;5099899;28;20363;-88
2021/12/20 01:40:20;;;;;;;11.20;4.73;;;2.90;75.00;;;;;;5110508;28;20274;-88
2021/12/20 01:42:47;;;;;;;12.67;4.97;;;2.90;75.10;;;;;;5105011;28;20036;-90
2021/12/20 01:45:17;;;;;;;12.63;4.17;;;2.90;75.20;;;;;;5099591;28;20044;-89
2021/12/20 01:47:47;;;;;;;13.17;4.63;;;2.90;75.30;;;;;;5099900;28;20028;-90
2021/12/20 01:53:04;;;;;;;15.97;6.47;;;3.00;75.30;;;;;;5073271;28;20107;-88
2021/12/20 01:55:29;;;;;;;;;;;3.00;75.30;;;;;;5104976;28;20047;-88
2021/12/20 01:57:55;;;;;;;19.73;7.00;;;3.00;75.40;;;;;;5107742;28;19957;-89
2021/12/20 02:00:25;;;;;;;21.23;7.68;;;3.10;75.20;;;;;;5108338;28;20032;-89
2021/12/20 02:02:59;;;;;;;16.70;6.83;;;3.00;75.30;;;;;;5100997;28;20456;-88
2021/12/20 02:05:45;;;;;;;19.50;7.63;;;3.10;75.40;;;;;;5111391;28;20024;-89
2021/12/20 02:08:21;;;;;;;18.27;6.57;;;3.00;75.50;;;;;;5106115;28;20136;-89
2021/12/20 02:10:49;;;;;;;16.67;6.40;;;3.00;75.40;;;;;;5103907;28;20069;-88
2021/12/20 02:13:16;;;;;;;16.97;7.40;;;3.00;75.50;;;;;;5110776;28;20072;-89
2021/12/20 02:15:49;;;;;;;17.60;6.70;;;3.00;75.50;;;;;;5104973;28;20020;-88
2021/12/20 02:18:14;;;;;;;14.37;6.30;;;3.00;75.70;;;;;;5099691;28;20028;-89
2021/12/20 02:20:40;;;;;;;;;;;3.00;75.70;;;;;;5107561;28;20032;-89
2021/12/20 02:23:06;;;;;;;11.20;5.47;;;3.00;75.80;;;;;;5104862;28;19908;-89
2021/12/20 02:25:33;;;;;;;16.23;5.43;;;2.90;75.50;;;;;;5108871;28;20032;-88
2021/12/20 02:28:09;;;;;;;11.73;5.73;;;2.90;75.70;;;;;;5108030;28;20020;-88
2021/12/20 02:30:42;;;;;;;15.02;5.90;;;2.90;75.80;;;;;;5101529;28;20069;-87
2021/12/20 02:38:37;;;;;;;10.50;4.00;;;2.90;75.70;;;;;;5107321;28;20038;-88
2021/12/20 02:41:09;;;;;;;8.80;4.07;;;2.90;75.50;;;;;;5111125;28;20445;-90
2021/12/20 02:43:41;;;;;;;4.63;3.00;;;3.00;75.50;;;;;;5110213;28;20468;-88
2021/12/20 02:49:23;;;;;;;12.80;4.50;;;3.00;75.00;;;;;;5107340;28;20345;-89
2021/12/20 02:51:51;;;;;;;10.87;4.40;;;3.00;74.90;;;;;;5104339;28;20024;-88
2021/12/20 02:54:20;;;;;;;9.23;4.23;;;3.10;75.00;;;;;;5106852;28;20028;-88
2021/12/20 02:56:47;;;;;;;12.67;5.00;;;3.00;75.00;;;;;;5106552;28;20032;-88
2021/12/20 02:59:15;;;;;;;8.23;3.93;;;3.10;74.90;;;;;;5102849;28;20028;-87
2021/12/20 03:01:43;;;;;;;13.03;6.00;;;3.10;75.00;;;;;;5103711;28;20019;-88
2021/12/20 03:04:09;;;;;;;10.93;5.73;;;3.10;74.80;;;;;;5100922;28;20039;-89
2021/12/20 03:06:40;;;;;;;3.07;1.93;;;3.10;74.80;;;;;;5109223;28;20028;-89
2021/12/20 03:09:08;;;;;;;11.33;5.27;;;3.10;74.80;;;;;;5101114;28;20047;-88
2021/12/20 03:11:35;;;;;;;11.70;5.07;;;3.10;74.80;;;;;;5111570;28;20046;-88
2021/12/20 03:14:18;;;;;;;13.23;4.97;;;3.10;74.80;;;;;;5105376;28;20033;-90
2021/12/20 03:16:44;;;;;;;7.07;3.30;;;3.10;74.80;;;;;;5105112;28;20024;-88
2021/12/20 03:19:10;;;;;;;;;;;3.10;74.50;;;;;;5102661;28;20038;-87
2021/12/20 03:21:36;;;;;;;10.23;4.50;;;3.10;74.40;;;;;;5104607;28;19908;-88
2021/12/20 03:24:08;;;;;;;12.88;5.22;;;3.10;73.90;;;;;;5106160;28;20020;-87
2021/12/20 03:26:34;;;;;;;3.47;2.03;;;3.10;74.10;;;;;;5101245;28;20066;-88
2021/12/20 03:29:00;;;;;;;;;;;3.10;74.10;;;;;;5116356;28;20019;-89
2021/12/20 03:31:25;;;;;;;14.87;5.33;;;3.10;74.00;;;;;;5107693;28;19908;-89
2021/12/20 03:33:51;;;;;;;;;;;3.10;73.70;;;;;;5106629;28;20024;-89
2021/12/20 03:36:16;;;;;;;5.60;3.30;;;3.10;73.80;;;;;;5110361;28;20030;-87
2021/12/20 03:38:44;;;;;;;;;;;3.20;73.40;;;;;;5108348;28;20108;-88
2021/12/20 03:41:10;;;;;;;11.77;3.77;;;3.10;73.40;;;;;;5104904;28;20473;-89
2021/12/20 03:43:35;;;;;;;;;;;3.10;73.10;;;;;;5104579;28;20031;-89
2021/12/20 03:46:03;;;;;;;13.53;3.73;;;3.10;73.20;;;;;;5108873;28;19965;-89
2021/12/20 03:48:29;;;;;;;12.80;4.50;;;3.10;73.00;;;;;;5109960;28;20050;-89
2021/12/20 03:50:56;;;;;;;6.50;3.43;;;3.10;73.20;;;;;;5109363;28;20476;-90
2021/12/20 03:53:22;;;;;;;9.27;4.20;;;3.10;73.30;;;;;;5110144;28;20530;-88
2021/12/20 03:55:47;;;;;;;;;;;3.00;73.40;;;;;;5108184;28;20162;-88
2021/12/20 03:58:13;;;;;;;10.67;3.93;;;3.10;73.50;;;;;;5100509;28;19959;-89
2021/12/20 04:00:39;;;;;;;14.20;5.03;;;3.10;73.10;;;;;;5102752;28;20476;-87
2021/12/20 04:03:10;;;;;;;7.80;2.63;;;3.10;73.30;;;;;;5104827;28;20081;-89
2021/12/20 04:05:36;;;;;;;11.47;3.33;;;3.00;73.50;;;;;;5097073;28;20372;-88
2021/12/20 04:08:02;;;;;;;;;;;3.10;73.40;;;;;;5100046;28;20034;-88
2021/12/20 04:10:27;;;;;;;10.30;3.40;;;3.10;73.50;;;;;;5104578;28;19958;-87
2021/12/20 04:12:53;;;;;;;;;;;3.10;73.20;;;;;;5111920;28;20024;-88
2021/12/20 04:15:18;;;;;;;8.97;4.50;;;3.00;73.20;;;;;;5111739;28;20396;-88
2021/12/20 04:17:44;;;;;;;4.57;2.90;;;3.00;73.20;;;;;;5099980;28;20068;-88
2021/12/20 04:20:10;;;;;;;8.30;4.03;;;2.90;73.40;;;;;;5109891;28;20027;-89
2021/12/20 04:22:36;;;;;;;9.33;4.37;;;2.90;73.50;;;;;;5104794;28;20024;-89
2021/12/20 04:25:02;;;;;;;;;;;2.90;73.70;;;;;;5099366;28;20025;-89
2021/12/20 04:27:28;;;;;;;7.73;4.23;;;2.90;73.60;;;;;;5106037;28;20404;-89
2021/12/20 04:29:55;;;;;;;;;;;2.90;73.40;;;;;;5106529;28;20098;-88
2021/12/20 04:32:23;;;;;;;3.17;1.87;;;2.90;73.50;;;;;;5105169;28;19916;-88
2021/12/20 04:34:48;;;;;;;7.37;3.80;;;2.90;73.30;;;;;;5101854;28;20101;-88
2021/12/20 04:37:21;;;;;;;;;;;2.80;73.50;;;;;;5099966;28;20020;-88
2021/12/20 04:39:48;;;;;;;3.93;2.13;;;2.80;73.60;;;;;;5101977;28;20330;-88
2021/12/20 04:42:14;;;;;;;9.00;3.63;;;2.80;73.60;;;;;;5106449;28;20078;-88
2021/12/20 04:44:39;;;;;;;;;;;2.80;73.70;;;;;;5108514;28;20479;-89
2021/12/20 04:47:05;;;;;;;5.57;2.93;;;2.80;73.90;;;;;;5103268;28;20420;-88
2021/12/20 04:49:30;;;;;;;3.30;1.88;;;2.90;73.60;;;;;;5098243;28;20027;-88
2021/12/20 04:51:56;;;;;;;;;;;2.90;73.30;;;;;;5103054;28;20015;-89
2021/12/20 04:54:23;;;;;;;10.10;3.30;;;2.90;73.30;;;;;;5105667;28;19973;-88
2021/12/20 04:56:48;;;;;;;9.17;3.40;;;2.90;73.20;;;;;;5105853;28;20024;-88
2021/12/20 04:59:14;;;;;;;;;;;2.90;73.20;;;;;;5096982;28;20024;-88
2021/12/20 05:01:40;;;;;;;4.17;2.00;;;3.00;73.10;;;;;;5099479;28;19957;-88
2021/12/20 05:04:05;;;;;;;;;;;3.00;72.80;;;;;;5100495;28;20431;-86
2021/12/20 05:06:36;;;;;;;9.63;3.50;;;2.90;72.90;;;;;;5108984;28;19912;-87
2021/12/20 05:09:04;;;;;;;10.57;3.10;;;2.90;72.80;;;;;;5099953;28;20024;-88
2021/12/20 05:11:33;;;;;;;7.20;3.73;;;2.90;72.90;;;;;;5107212;28;20027;-88
2021/12/20 05:13:59;;;;;;;10.03;4.47;;;2.90;73.10;;;;;;5110607;28;20103;-85
2021/12/20 05:16:24;;;;;;;;;;;2.90;73.40;;;;;;5105958;28;20109;-88
2021/12/20 05:18:50;;;;;;;5.10;2.17;;;2.90;73.60;;;;;;5108204;28;19915;-89
2021/12/20 05:21:15;;;;;;;;;;;2.90;73.70;;;;;;5108233;28;20024;-89
2021/12/20 05:23:41;;;;;;;5.40;1.77;;;2.80;74.00;;;;;;5102303;28;19908;-87
2021/12/20 05:26:06;;;;;;;;;;;2.80;74.00;;;;;;5105630;28;20062;-88
2021/12/20 05:28:32;;;;;;;6.87;3.13;;;2.80;74.20;;;;;;5106229;28;20267;-88
2021/12/20 05:30:57;;;;;;;10.05;4.10;;;2.80;74.30;;;;;;5108131;28;20107;-88
2021/12/20 05:33:26;;;;;;;4.53;2.45;;;2.80;74.40;;;;;;5105694;28;20012;-88
2021/12/20 05:35:55;;;;;;;7.97;4.30;;;2.80;74.70;;;;;;5102631;28;20051;-87
2021/12/20 05:38:20;;;;;;;8.13;3.23;;;2.80;74.80;;;;;;5104825;28;20024;-87
2021/12/20 05:40:46;;;;;;;;;;;2.80;74.80;;;;;;5101937;28;20020;-87
2021/12/20 05:43:12;;;;;;;6.43;3.10;;;2.80;74.90;;;;;;5108524;28;19995;-89
2021/12/20 05:45:37;;;;;;;16.98;7.25;;;2.80;74.70;;;;;;5105556;28;20032;-89
2021/12/20 05:48:04;;;;;;;4.18;2.75;;;2.80;74.80;;;;;;5106775;28;20024;-88
2021/12/20 05:50:29;;;;;;;;;;;2.80;74.80;;;;;;5101525;28;20039;-88
2021/12/20 05:52:56;;;;;;;6.87;3.67;;;2.80;74.70;;;;;;5110102;28;19908;-88
2021/12/20 05:55:22;;;;;;;11.97;3.77;;;2.80;74.50;;;;;;5104610;28;20032;-89
2021/12/20 05:57:47;;;;;;;;;;;2.80;74.50;;;;;;5110415;28;20048;-87
2021/12/20 06:00:18;;;;;;;12.27;5.53;;;2.80;74.60;;;;;;5101846;28;19934;-87
2021/12/20 06:02:49;;;;;;;11.50;4.10;;;2.80;74.30;;;;;;5109105;28;20031;-88
2021/12/20 06:05:14;;;;;;;10.03;4.97;;;2.90;74.40;;;;;;5108478;28;20020;-88
2021/12/20 06:07:42;;;;;;;;;;;2.80;74.40;;;;;;5100566;28;20045;-89
2021/12/20 06:10:11;;;;;;;8.47;3.27;;;2.80;74.50;;;;;;5105899;28;19908;-88
2021/12/20 06:12:39;;;;;;;5.37;3.30;;;2.90;74.30;;;;;;5102093;28;20024;-88
2021/12/20 06:15:05;;;;;;;3.97;2.43;;;2.90;74.30;;;;;;5097989;28;20114;-88
2021/12/20 06:17:30;;;;;;;;;;;2.90;74.30;;;;;;5104753;28;20028;-88
2021/12/20 06:19:56;;;;;;;8.83;3.53;;;2.90;74.40;;;;;;5104097;28;19915;-89
2021/12/20 06:22:22;;;;;;;;;;;2.90;74.20;;;;;;5103358;28;20024;-89
2021/12/20 06:24:47;;;;;;;7.50;3.90;;;2.90;74.40;;;;;;5096083;28;19908;-88
2021/12/20 06:27:13;;;;;;;;;;;2.90;74.30;;;;;;5103416;28;20020;-87
2021/12/20 06:29:39;;;;;;;10.07;4.67;;;2.90;74.40;;;;;;5103235;28;19919;-88
2021/12/20 06:32:04;;;;;;;;;;;2.90;74.20;;;;;;5107238;28;20057;-87
2021/12/20 06:34:31;;;;;;;4.13;1.83;;;2.90;74.30;;;;;;5104361;28;20279;-89
2021/12/20 06:37:32;;;;;;;17.27;5.70;;;2.90;74.20;;;;;;5105217;28;20024;-89
2021/12/20 06:39:59;;;;;;;8.13;4.27;;;2.80;74.50;;;;;;5098561;28;20035;-88
2021/12/20 06:42:25;;;;;;;11.57;4.63;;;2.90;74.60;;;;;;5092658;28;20481;-89
2021/12/20 06:44:51;;;;;;;;;;;2.80;74.90;;;;;;5098046;28;20051;-86
2021/12/20 06:47:19;;;;;;;11.87;4.50;;;2.80;75.10;;;;;;5106203;28;20433;-88
2021/12/20 06:49:44;;;;;;;18.70;7.47;;;2.90;75.10;;;;;;5105289;28;20028;-88
2021/12/20 06:52:10;;;;;;;;;;;2.80;75.20;;;;;;5105127;28;20035;-87
2021/12/20 06:54:39;;;;;;;14.83;6.13;;;2.80;75.40;;;;;;5104678;28;19908;-87
2021/12/20 06:57:05;;;;;;;9.30;4.10;;;2.90;75.10;;;;;;5102259;28;20038;-88
2021/12/20 06:59:31;;;;;;;;;;;2.90;75.30;;;;;;5099264;28;20099;-89
2021/12/20 07:01:57;;;;;;;10.73;4.37;;;2.90;75.30;;;;;;5103142;28;19907;-88
2021/12/20 07:04:23;;;;;;;11.23;4.13;;;2.90;74.90;;;;;;5102001;28;20042;-87
2021/12/20 07:06:57;;;;;;;;;;;2.80;74.90;;;;;;5106265;28;20026;-88
2021/12/20 07:09:28;;;;;;;9.87;4.87;;;2.90;74.90;;;;;;5103448;28;19908;-94
2021/12/20 07:11:54;;;;;;;13.47;5.13;;;2.90;74.60;;;;;;5104159;28;20028;-90
2021/12/20 07:14:20;;;;;;;;;;;2.90;74.80;;;;;;5121267;28;20104;-91
2021/12/20 07:16:45;;;;;;;8.10;3.60;;;2.90;74.80;;;;;;5101569;28;19908;-91
2021/12/20 07:19:11;;;;;;;;;;;2.90;74.60;;;;;;5117649;28;20032;-90
2021/12/20 07:21:37;;;;;;;5.30;3.47;;;3.00;74.50;;;;;;5114880;28;20420;-90
2021/12/20 07:24:02;;;;;;;;;;;3.00;74.30;;;;;;5112868;28;20023;-89
2021/12/20 07:26:29;;;;;;;4.87;2.17;;;2.90;74.40;;;;;;5116734;28;19907;-89
2021/12/20 07:28:55;;;;;;;11.10;4.60;;;3.00;74.30;;;;;;5102737;28;20472;-89
2021/12/20 07:31:21;;;;;;;;;;;3.00;74.40;;;;;;5116039;28;20072;-90
2021/12/20 07:33:47;;;;;;;11.83;4.73;;;3.00;74.50;;;;;;5099763;28;19908;-90
2021/12/20 07:36:15;;;;;;;;;;;3.10;74.10;;;;;;5102528;28;20024;-90
2021/12/20 07:38:41;;;;;;;10.33;4.73;;;3.10;74.10;;;;;;5107134;28;19908;-90
2021/12/20 07:41:07;;;;;;;;;;;3.10;73.90;;;;;;5101547;28;20039;-91
2021/12/20 07:43:32;;;;;;;8.37;3.07;;;3.10;73.90;;;;;;5095842;28;19915;-90
2021/12/20 07:45:58;;;;;;;7.38;4.07;;;3.20;73.30;;;;;;5103661;28;20036;-89
2021/12/20 07:48:24;;;;;;;;;;;3.10;73.40;;;;;;5112466;28;20032;-89
2021/12/20 07:50:51;;;;;;;9.37;4.30;;;3.10;73.50;;;;;;5106829;28;19915;-90
2021/12/20 07:53:16;;;;;;;5.53;3.67;;;3.10;73.30;;;;;;5113704;28;20016;-89
2021/12/20 07:55:42;;;;;;;;;;;3.10;73.60;;;;;;5104577;28;20028;-91
2021/12/20 07:58:08;;;;;;;6.87;2.60;;;3.10;73.70;;;;;;5109404;28;19908;-90
2021/12/20 08:00:34;;;;;;;;;;;3.10;73.50;;;;;;5118067;28;20031;-93
2021/12/20 08:02:59;;;;;;;8.97;3.33;;;3.10;73.60;;;;;;5118793;28;19895;-91
2021/12/20 08:05:26;;;;;;;;;;;3.20;73.40;;;;;;5118377;28;20111;-91
2021/12/20 08:07:52;;;;;;;6.00;3.55;;;3.20;73.70;;;;;;5121373;28;19961;-95
2021/12/20 08:10:18;;;;;;;;;;;3.20;73.50;;;;;;5104860;28;20541;-95
2021/12/20 08:12:45;;;;;;;5.17;2.40;;;3.20;73.70;;;;;;5100034;28;19904;-95
2021/12/20 08:15:12;;;;;;;5.87;3.83;;;3.20;73.50;;;;;;5098049;28;20021;-92
2021/12/20 08:17:38;;;;;;;3.70;2.57;;;3.20;73.40;;;;;;5102630;28;20483;-88
2021/12/20 08:20:05;;;;;;;7.40;3.57;;;3.20;73.30;;;;;;5105910;28;20476;-86
2021/12/20 08:22:34;;;;;;;7.17;3.23;;;3.10;73.40;;;;;;5103389;28;20046;-89
2021/12/20 08:24:59;;;;;;;7.13;3.83;;;3.20;73.60;;;;;;5106404;28;20031;-88
2021/12/20 08:27:25;;;;;;;;;;;3.20;73.70;;;;;;5104841;28;20043;-89
2021/12/20 08:29:50;;;;;;;8.37;3.30;;;3.20;73.90;;;;;;5105894;28;19908;-88
2021/12/20 08:32:16;;;;;;;11.65;5.30;;;3.20;73.70;;;;;;5096122;28;20040;-87
2021/12/20 08:34:42;;;;;;;;;;;3.10;73.80;;;;;;5102458;28;20089;-88
2021/12/20 08:37:07;;;;;;;5.03;2.10;;;3.20;74.00;;;;;;5110259;28;19912;-88
2021/12/20 08:39:36;;;;;;;;;;;3.20;73.80;;;;;;5098501;28;20080;-88
2021/12/20 08:42:03;;;;;;;6.57;3.50;;;3.20;73.60;;;;;;5104695;28;19908;-88
2021/12/20 08:44:33;;;;;;;7.40;3.50;;;3.30;73.50;;;;;;5101251;28;20020;-88
2021/12/20 08:46:59;;;;;;;7.43;3.83;;;3.30;73.70;;;;;;5116044;28;20396;-85
2021/12/20 08:49:25;;;;;;;;;;;3.30;73.70;;;;;;5109719;28;20438;-87
2021/12/20 08:51:52;;;;;;;9.83;4.23;;;3.40;73.60;;;;;;5109495;28;19948;-88
2021/12/20 08:54:18;;;;;;;4.13;2.67;;;3.40;73.30;;;;;;5097346;28;20024;-89
2021/12/20 08:56:44;;;;;;;;;;;3.30;73.30;;;;;;5106938;28;20081;-85
2021/12/20 08:59:09;;;;;;;9.00;4.33;;;3.40;73.30;;;;;;5103402;28;19915;-85
2021/12/20 09:01:38;;;;;;;;;;;3.40;73.20;;;;;;5106957;28;20032;-85
2021/12/20 09:04:08;;;;;;;4.87;3.03;;;3.40;73.20;;;;;;5096437;28;19915;-85
2021/12/20 09:06:38;;;;;;;3.17;2.07;;;3.40;73.00;;;;;;5096735;28;20074;-86
2021/12/20 09:09:05;;;;;;;7.30;3.60;;;3.40;73.20;;;;;;5108944;28;20059;-85
2021/12/20 09:11:31;;;;;;;7.60;2.87;;;3.40;73.10;;;;;;5105394;28;20096;-85
2021/12/20 09:13:56;;;;;;;;;;;3.40;73.30;;;;;;5102944;28;20019;-86
2021/12/20 09:16:22;;;;;;;6.33;2.23;;;3.40;73.00;;;;;;5106954;28;19907;-86
2021/12/20 09:18:48;;;;;;;9.48;4.03;;;3.50;72.70;;;;;;5096560;28;20028;-85
2021/12/20 09:21:15;;;;;;;;;;;3.50;72.80;;;;;;5103524;28;20028;-85
2021/12/20 09:23:40;;;;;;;4.20;2.20;;;3.50;73.00;;;;;;5104070;28;19951;-86
2021/12/20 09:26:06;;;;;;;6.40;2.88;;;3.50;72.60;;;;;;5108577;28;20502;-85
2021/12/20 09:28:33;;;;;;;8.27;3.38;;;3.50;72.50;;;;;;5113514;28;20076;-85
2021/12/20 09:31:01;;;;;;;6.13;3.13;;;3.60;72.60;;;;;;5105481;28;20024;-85
2021/12/20 09:33:26;;;;;;;8.67;3.90;;;3.60;72.70;;;;;;5099222;28;20028;-84
2021/12/20 09:35:53;;;;;;;;;;;3.60;72.40;;;;;;5113422;28;20023;-85
2021/12/20 09:38:20;;;;;;;6.03;2.85;;;3.60;72.40;;;;;;5108998;28;19918;-85
2021/12/20 09:43:37;;;;;;;5.27;2.93;;;3.60;72.30;;;;;;5100480;28;20040;-85
2021/12/20 09:46:03;;;;;;;6.70;2.60;;;3.60;72.40;;;;;;5113629;28;20181;-85
2021/12/20 09:48:29;;;;;;;8.80;3.80;;;3.60;72.20;;;;;;5099844;28;20032;-84
2021/12/20 09:50:55;;;;;;;;;;;3.60;72.20;;;;;;5099589;28;20035;-85
2021/12/20 09:53:21;;;;;;;5.23;2.27;;;3.70;71.70;;;;;;5113383;28;19904;-85
2021/12/20 09:55:47;;;;;;;;;;;3.80;71.40;;;;;;5097668;28;20055;-84
2021/12/20 09:58:14;;;;;;;5.37;2.23;;;3.80;71.30;;;;;;5108315;28;19911;-84
2021/12/20 10:00:40;;;;;;;4.47;2.07;;;3.70;71.20;;;;;;5103534;28;20043;-84
2021/12/20 10:03:06;;;;;;;5.57;2.10;;;3.70;71.50;;;;;;5099166;28;20027;-84
2021/12/20 10:05:33;;;;;;;5.33;2.43;;;3.60;71.60;;;;;;5100527;28;20032;-84
2021/12/20 10:08:08;;;;;;;5.07;2.60;;;3.60;71.70;;;;;;5102084;28;20032;-85
2021/12/20 10:10:44;;;;;;;6.13;4.30;;;3.60;71.70;;;;;;5103941;28;20034;-84
2021/12/20 10:13:37;;;;;;;5.07;2.50;;;3.60;71.90;;;;;;5088766;28;20042;-84
2021/12/20 10:16:13;;;;;;;5.67;3.20;;;3.60;72.00;;;;;;5098177;28;20110;-86
2021/12/20 10:18:39;;;;;;;5.15;2.42;;;3.60;71.90;;;;;;5109044;28;20027;-84
2021/12/20 10:21:04;;;;;;;;;;;3.60;71.90;;;;;;5110879;28;20016;-84
2021/12/20 10:23:33;;;;;;;3.47;2.00;;;3.60;72.00;;;;;;5107552;28;20424;-85
2021/12/20 10:26:01;;;;;;;6.93;1.70;;;3.60;71.60;;;;;;5104873;28;20039;-86
2021/12/20 10:28:34;;;;;;;6.67;2.87;;;3.60;71.70;;;;;;5100353;28;20020;-85
2021/12/20 10:31:06;;;;;;;4.13;2.50;;;3.50;72.00;;;;;;5096380;28;20024;-85
2021/12/20 10:33:32;;;;;;;4.87;2.80;;;3.50;72.30;;;;;;5105531;28;20023;-86
2021/12/20 10:35:58;;;;;;;;;;;3.50;72.50;;;;;;5098853;28;20039;-85
2021/12/20 10:38:26;;;;;;;6.25;3.20;;;3.40;72.70;;;;;;5096132;28;20336;-85
2021/12/20 10:41:00;;;;;;;5.20;2.33;;;3.40;72.70;;;;;;5095010;28;20025;-84
2021/12/20 10:43:35;;;;;;;5.93;3.07;;;3.40;72.90;;;;;;5108489;28;20459;-84
2021/12/20 10:46:13;;;;;;;4.73;2.53;;;3.40;73.00;;;;;;5102090;28;20499;-83
2021/12/20 10:48:38;;;;;;;4.10;2.20;;;3.40;73.00;;;;;;5112110;28;20087;-81
2021/12/20 10:51:05;;;;;;;;;;;3.50;72.80;;;;;;5103406;28;20044;-84
2021/12/20 10:53:30;;;;;;;2.77;1.90;;;3.50;72.70;;;;;;5095057;28;19908;-84
2021/12/20 10:55:57;;;;;;;;;;;3.50;72.50;;;;;;5102187;28;20024;-84
2021/12/20 10:58:33;;;;;;;2.97;1.95;;;3.50;72.60;;;;;;5109073;28;19915;-85
2021/12/20 11:01:06;;;;;;;2.88;1.75;;;3.50;72.40;;;;;;5102226;28;20051;-84
2021/12/20 11:03:37;;;;;;;3.67;2.13;;;3.50;72.50;;;;;;5092875;28;20071;-84
2021/12/20 11:09:05;;;;;;;5.03;2.70;;;3.50;72.50;;;;;;5089562;28;20050;-85
2021/12/20 11:11:32;;;;;;;4.83;2.73;;;3.50;72.60;;;;;;5103588;28;20069;-83
2021/12/20 11:13:59;;;;;;;8.40;4.53;;;3.50;72.70;;;;;;5112397;28;20061;-84
2021/12/20 11:16:31;;;;;;;6.60;3.00;;;3.60;72.80;;;;;;5108492;28;20023;-83
2021/12/20 11:19:17;;;;;;;5.97;3.87;;;3.50;72.80;;;;;;5099356;28;20019;-84
2021/12/20 11:21:57;;;;;;;4.10;1.97;;;3.50;73.00;;;;;;5079030;28;20044;-84
2021/12/20 11:24:49;;;;;;;3.13;1.87;;;3.50;72.80;;;;;;5109783;28;20031;-84
2021/12/20 11:27:32;;;;;;;7.27;3.87;;;3.50;72.50;;;;;;5092011;28;20480;-85
2021/12/20 11:29:59;;;;;;;7.43;3.20;;;3.60;72.40;;;;;;5087983;28;20015;-85
2021/12/20 11:32:26;;;;;;;3.80;2.57;;;3.60;72.50;;;;;;5101002;28;20038;-85
2021/12/20 11:34:53;;;;;;;2.30;1.73;;;3.70;72.30;;;;;;5106853;28;20066;-84
2021/12/20 11:37:27;;;;;;;5.30;3.03;;;3.70;72.00;;;;;;5092545;28;20024;-84
2021/12/20 11:39:55;;;;;;;5.33;2.63;;;3.80;72.00;;;;;;5111367;28;20027;-84
2021/12/20 11:42:21;;;;;;;9.03;4.10;;;3.70;71.80;;;;;;5097362;28;20035;-85
2021/12/20 11:44:49;;;;;;;5.23;2.70;;;3.70;71.80;;;;;;5110270;28;20023;-84
2021/12/20 11:47:31;;;;;;;8.47;3.30;;;3.60;71.90;;;;;;5100897;28;20043;-84
2021/12/20 11:50:00;;;;;;;5.60;2.57;;;3.50;72.00;;;;;;5111187;28;20027;-84
2021/12/20 11:52:34;;;;;;;5.43;3.17;;;3.50;72.20;;;;;;5087068;28;20372;-85
2021/12/20 11:55:12;;;;;;;3.57;2.37;;;3.40;72.40;;;;;;5103099;28;20099;-85
2021/12/20 11:57:43;;;;;;;4.07;2.47;;;3.40;72.50;;;;;;5108194;28;20034;-84
2021/12/20 12:00:26;;;;;;;7.57;2.47;;;3.40;72.30;;;;;;5090719;28;20046;-85
2021/12/20 12:02:55;;;;;;;9.00;3.23;;;3.30;72.50;;;;;;5106627;28;20059;-84
2021/12/20 12:05:48;;;;;;;6.60;3.03;;;3.30;72.70;;;;;;5095159;28;20122;-84
2021/12/20 12:08:26;;;;;;;4.63;1.93;;;3.30;72.80;;;;;;5100293;28;20039;-84
2021/12/20 12:10:54;;;;;;;4.80;2.93;;;3.20;72.90;;;;;;5095464;28;20373;-85
2021/12/20 12:20:46;;;;;;;4.63;2.87;;;3.30;72.30;;;;;;5044821;28;20034;-85
2021/12/20 12:23:27;;;;;;;4.03;2.03;;;3.30;72.30;;;;;;5113938;28;20123;-86
2021/12/20 12:25:56;;;;;;;3.10;2.37;;;3.30;72.30;;;;;;5106325;28;20035;-86
2021/12/20 12:28:25;;;;;;;7.00;3.23;;;3.30;72.20;;;;;;5106924;28;20020;-85
2021/12/20 12:31:06;;;;;;;8.40;2.47;;;3.30;72.30;;;;;;5106423;28;20517;-86
2021/12/20 12:33:35;;;;;;;10.50;3.70;;;3.30;72.20;;;;;;5100219;28;20020;-84
2021/12/20 12:36:04;;;;;;;6.07;2.90;;;3.30;72.20;;;;;;5111172;28;20520;-83
2021/12/20 12:38:33;;;;;;;13.03;5.37;;;3.30;72.30;;;;;;5114147;28;20049;-84
2021/12/20 12:41:05;;;;;;;4.90;2.63;;;3.30;72.50;;;;;;5105622;28;20449;-85
2021/12/20 12:44:08;;;;;;;9.97;3.87;;;3.30;72.60;;;;;;5090250;28;20028;-85
2021/12/20 12:46:37;;;;;;;10.90;4.37;;;3.30;72.80;;;;;;5097357;28;20040;-85
2021/12/20 12:49:20;;;;;;;9.23;3.80;;;3.30;72.80;;;;;;5104485;28;20077;-84
2021/12/20 12:51:50;;;;;;;9.03;3.80;;;3.20;72.80;;;;;;5099594;28;20380;-84
2021/12/20 12:54:34;;;;;;;2.77;2.20;;;3.20;72.80;;;;;;5106364;28;20054;-84
2021/12/20 12:57:12;;;;;;;3.10;2.17;;;3.30;72.80;;;;;;5098200;28;20035;-85
2021/12/20 12:59:58;;;;;;;4.00;2.63;;;3.20;72.50;;;;;;5094133;28;20032;-85
2021/12/20 13:02:30;;;;;;;10.70;4.43;;;3.20;72.60;;;;;;5103478;28;20031;-86
2021/12/20 13:04:58;;;;;;;3.67;2.90;;;3.20;72.70;;;;;;5101511;28;20031;-84
2021/12/20 13:07:40;;;;;;;6.10;2.57;;;3.20;72.90;;;;;;5099221;28;20023;-85
2021/12/20 13:10:10;;;;;;;9.63;3.50;;;3.20;72.90;;;;;;5101671;28;20101;-84
2021/12/20 13:12:53;;;;;;;9.83;4.10;;;3.20;72.70;;;;;;5103167;28;20036;-85
2021/12/20 13:15:34;;;;;;;14.43;4.47;;;3.20;72.90;;;;;;5103102;28;20538;-85
2021/12/20 13:18:08;;;;;;;7.33;3.57;;;3.10;72.60;;;;;;5104951;28;20039;-85
2021/12/20 13:20:45;;;;;;;5.03;2.90;;;3.20;72.50;;;;;;5097875;28;20019;-85
2021/12/20 13:23:49;;;;;;;4.65;2.63;;;3.20;72.30;;;;;;5111842;28;20077;-85
2021/12/20 13:26:19;;;;;;;8.33;3.53;;;3.10;72.20;;;;;;5099995;28;20492;-83
2021/12/20 13:28:50;;;;;;;8.97;3.53;;;3.20;72.10;;;;;;5109701;28;20024;-86
2021/12/20 13:31:19;;;;;;;4.73;2.20;;;3.20;72.20;;;;;;5101651;28;20050;-84
2021/12/20 13:33:53;;;;;;;5.37;2.53;;;3.20;72.00;;;;;;5113473;28;20069;-86
2021/12/20 13:36:29;;;;;;;9.23;3.80;;;3.10;71.60;;;;;;5112590;28;20055;-86
2021/12/20 13:38:57;;;;;;;8.05;4.10;;;3.10;71.60;;;;;;5101525;28;20058;-84
2021/12/20 13:41:23;;;;;;;7.13;3.80;;;3.10;71.30;;;;;;5106715;28;20032;-86
2021/12/20 13:44:04;;;;;;;8.73;3.63;;;3.10;71.50;;;;;;5107153;28;20034;-86
2021/12/20 13:49:20;;;;;;;7.07;4.13;;;3.10;71.50;;;;;;5091699;28;20035;-87
2021/12/20 13:51:52;;;;;;;12.93;5.53;;;3.10;71.70;;;;;;5110413;28;20055;-87